createdAt,value
2022-09-15T00:02:15.953Z,100.00
2022-09-15T00:04:42.078Z,100.00
2022-09-15T00:07:08.140Z,100.00
2022-09-15T00:09:35.120Z,100.00
2022-09-15T00:12:01.347Z,100.00
2022-09-15T00:14:27.344Z,100.00
2022-09-15T00:16:53.515Z,100.00
2022-09-15T00:19:19.602Z,100.00
2022-09-15T00:21:45.977Z,100.00
2022-09-15T00:24:11.986Z,100.00
2022-09-15T00:26:38.097Z,100.00
2022-09-15T00:29:04.670Z,100.00
2022-09-15T00:31:31.596Z,100.00
2022-09-15T00:34:01.801Z,100.00
2022-09-15T00:36:28.107Z,100.00
2022-09-15T00:38:54.447Z,100.00
2022-09-15T00:41:22.077Z,100.00
2022-09-15T00:44:02.914Z,100.00
2022-09-15T00:46:30.760Z,100.00
2022-09-15T00:49:16.341Z,100.00
2022-09-15T00:51:45.284Z,100.00
2022-09-15T00:54:15.672Z,100.00
2022-09-15T00:56:42.708Z,100.00
2022-09-15T00:59:13.618Z,100.00
2022-09-15T01:01:40.247Z,100.00
2022-09-15T01:04:06.352Z,100.00
2022-09-15T01:06:35.802Z,100.00
2022-09-15T01:09:31.154Z,100.00
2022-09-15T01:11:57.409Z,100.00
2022-09-15T01:14:23.536Z,100.00
2022-09-15T01:17:19.690Z,100.00
2022-09-15T01:20:07.569Z,100.00
2022-09-15T01:22:42.647Z,100.00
2022-09-15T01:25:41.173Z,100.00
2022-09-15T01:28:51.940Z,100.00
2022-09-15T01:31:27.057Z,100.00
2022-09-15T01:34:07.268Z,100.00
2022-09-15T01:36:46.881Z,100.00
2022-09-15T01:39:16.397Z,100.00
2022-09-15T01:41:46.198Z,100.00
2022-09-15T01:44:24.262Z,100.00
2022-09-15T01:46:56.392Z,100.00
2022-09-15T01:49:25.763Z,100.00
2022-09-15T01:51:53.858Z,100.00
2022-09-15T01:54:23.726Z,100.00
2022-09-15T01:56:49.740Z,100.00
2022-09-15T01:59:15.801Z,100.00
2022-09-15T02:01:48.946Z,100.00
2022-09-15T02:04:27.193Z,100.00
2022-09-15T02:07:13.425Z,100.00
2022-09-15T02:10:10.714Z,100.00
2022-09-15T02:12:50.031Z,100.00
2022-09-15T02:15:32.633Z,100.00
2022-09-15T02:18:00.776Z,100.00
2022-09-15T02:20:33.519Z,100.00
2022-09-15T02:23:07.700Z,100.00
2022-09-15T02:25:40.287Z,100.00
2022-09-15T02:28:08.034Z,100.00
2022-09-15T02:30:39.776Z,100.00
2022-09-15T02:33:08.105Z,100.00
2022-09-15T02:35:35.597Z,100.00
2022-09-15T02:38:04.587Z,100.00
2022-09-15T02:40:31.626Z,100.00
2022-09-15T02:43:04.803Z,100.00
2022-09-15T02:45:31.434Z,100.00
2022-09-15T02:47:58.299Z,100.00
2022-09-15T02:50:27.494Z,100.00
2022-09-15T02:52:54.870Z,100.00
2022-09-15T02:55:21.303Z,100.00
2022-09-15T02:57:47.335Z,100.00
2022-09-15T03:00:14.299Z,100.00
2022-09-15T03:02:43.036Z,100.00
2022-09-15T03:05:12.382Z,100.00
2022-09-15T03:07:38.692Z,100.00
2022-09-15T03:10:05.922Z,100.00
2022-09-15T03:12:37.496Z,100.00
2022-09-15T03:15:03.935Z,100.00
2022-09-15T03:17:33.941Z,100.00
2022-09-15T03:20:00.228Z,100.00
2022-09-15T03:22:26.234Z,100.00
2022-09-15T03:24:52.370Z,100.00
2022-09-15T03:27:18.387Z,100.00
2022-09-15T03:29:44.380Z,100.00
2022-09-15T03:32:10.407Z,100.00
2022-09-15T03:34:36.623Z,100.00
2022-09-15T03:37:02.740Z,100.00
2022-09-15T03:39:28.768Z,100.00
2022-09-15T03:41:54.894Z,100.00
2022-09-15T03:44:21.016Z,100.00
2022-09-15T03:46:47.014Z,100.00
2022-09-15T03:49:13.016Z,100.00
2022-09-15T03:51:39.042Z,100.00
2022-09-15T03:54:05.107Z,100.00
2022-09-15T03:56:32.196Z,100.00
2022-09-15T03:59:00.843Z,100.00
2022-09-15T04:01:27.787Z,100.00
2022-09-15T04:03:53.917Z,100.00
2022-09-15T04:06:21.557Z,100.00
2022-09-15T04:08:48.540Z,100.00
2022-09-15T04:11:14.602Z,100.00
2022-09-15T04:13:41.732Z,100.00
2022-09-15T04:16:10.444Z,100.00
2022-09-15T04:18:36.633Z,100.00
2022-09-15T04:21:05.991Z,100.00
2022-09-15T04:23:32.759Z,100.00
2022-09-15T04:26:04.610Z,100.00
2022-09-15T04:28:36.197Z,100.00
2022-09-15T04:31:07.685Z,100.00
2022-09-15T04:33:34.285Z,100.00
2022-09-15T04:36:05.219Z,100.00
2022-09-15T04:38:31.311Z,100.00
2022-09-15T04:40:58.126Z,100.00
2022-09-15T04:43:27.616Z,100.00
2022-09-15T04:45:54.291Z,100.00
2022-09-15T04:48:21.309Z,100.00
2022-09-15T04:50:47.610Z,100.00
2022-09-15T04:53:13.670Z,100.00
2022-09-15T04:55:40.146Z,100.00
2022-09-15T04:58:06.826Z,100.00
2022-09-15T05:00:38.862Z,100.00
2022-09-15T05:03:04.874Z,100.00
2022-09-15T05:05:33.212Z,100.00
2022-09-15T05:08:00.230Z,100.00
2022-09-15T05:10:26.418Z,100.00
2022-09-15T05:12:53.307Z,100.00
2022-09-15T05:15:19.395Z,100.00
2022-09-15T05:17:45.581Z,100.00
2022-09-15T05:20:11.590Z,100.00
2022-09-15T05:22:41.689Z,100.00
2022-09-15T05:25:08.413Z,100.00
2022-09-15T05:27:34.411Z,100.00
2022-09-15T05:30:23.446Z,100.00
2022-09-15T05:32:46.399Z,100.00
2022-09-15T05:35:12.656Z,100.00
2022-09-15T05:37:38.650Z,100.00
2022-09-15T05:40:08.495Z,100.00
2022-09-15T05:42:34.868Z,100.00
2022-09-15T05:45:01.082Z,100.00
2022-09-15T05:47:27.066Z,100.00
2022-09-15T05:49:54.179Z,100.00
2022-09-15T05:52:20.163Z,100.00
2022-09-15T05:54:46.730Z,100.00
2022-09-15T05:57:12.749Z,100.00
2022-09-15T05:59:38.768Z,100.00
2022-09-15T06:02:04.973Z,100.00
2022-09-15T06:04:30.998Z,100.00
2022-09-15T06:06:56.980Z,100.00
2022-09-15T06:09:22.966Z,100.00
2022-09-15T06:11:49.030Z,100.00
2022-09-15T06:14:15.395Z,100.00
2022-09-15T06:16:41.403Z,100.00
2022-09-15T06:19:07.474Z,100.00
2022-09-15T06:21:33.647Z,100.00
2022-09-15T06:24:02.798Z,100.00
2022-09-15T06:26:28.780Z,100.00
2022-09-15T06:28:55.713Z,100.00
2022-09-15T06:31:22.625Z,100.00
2022-09-15T06:33:50.467Z,100.00
2022-09-15T06:36:17.391Z,100.00
2022-09-15T06:38:44.501Z,100.00
2022-09-15T06:41:11.113Z,100.00
2022-09-15T06:43:37.640Z,100.00
2022-09-15T06:46:09.224Z,100.00
2022-09-15T06:48:36.527Z,100.00
2022-09-15T06:51:03.338Z,100.00
2022-09-15T06:53:33.403Z,100.00
2022-09-15T06:56:06.921Z,100.00
2022-09-15T06:58:37.530Z,100.00
2022-09-15T07:01:08.044Z,100.00
2022-09-15T07:03:34.214Z,100.00
2022-09-15T07:06:00.352Z,100.00
2022-09-15T07:08:26.516Z,100.00
2022-09-15T07:10:52.735Z,100.00
2022-09-15T07:13:18.744Z,100.00
2022-09-15T07:15:52.726Z,100.00
2022-09-15T07:18:19.025Z,100.00
2022-09-15T07:20:45.099Z,100.00
2022-09-15T07:23:11.099Z,100.00
2022-09-15T07:25:37.095Z,100.00
2022-09-15T07:28:03.174Z,100.00
2022-09-15T07:30:29.210Z,100.00
2022-09-15T07:32:55.200Z,100.00
2022-09-15T07:35:21.219Z,100.00
2022-09-15T07:37:51.281Z,100.00
2022-09-15T07:40:17.599Z,100.00
2022-09-15T07:42:44.109Z,100.00
2022-09-15T07:45:10.911Z,100.00
2022-09-15T07:47:37.348Z,100.00
2022-09-15T07:50:04.899Z,100.00
2022-09-15T07:52:31.213Z,100.00
2022-09-15T07:54:57.311Z,100.00
2022-09-15T07:57:23.353Z,100.00
2022-09-15T07:59:49.346Z,100.00
2022-09-15T08:02:17.347Z,100.00
2022-09-15T08:04:43.783Z,100.00
2022-09-15T08:07:10.604Z,100.00
2022-09-15T08:09:37.516Z,100.00
2022-09-15T08:12:04.501Z,100.00
2022-09-15T08:14:32.060Z,100.00
2022-09-15T08:17:06.053Z,100.00
2022-09-15T08:19:34.780Z,100.00
2022-09-15T08:22:01.272Z,100.00
2022-09-15T08:24:28.149Z,100.00
2022-09-15T08:26:54.498Z,100.00
2022-09-15T08:29:20.746Z,100.00
2022-09-15T08:31:47.498Z,100.00
2022-09-15T08:34:15.740Z,100.00
2022-09-15T08:36:42.419Z,100.00
2022-09-15T08:39:08.724Z,100.00
2022-09-15T08:41:37.833Z,100.00
2022-09-15T08:44:27.073Z,100.00
2022-09-15T08:46:59.353Z,100.00
2022-09-15T08:49:47.803Z,100.00
2022-09-15T08:52:20.432Z,100.00
2022-09-15T08:54:46.491Z,100.00
2022-09-15T08:57:16.262Z,100.00
2022-09-15T08:59:42.631Z,100.00
2022-09-15T09:02:11.659Z,100.00
2022-09-15T09:05:08.257Z,100.00
2022-09-15T09:08:09.903Z,100.00
2022-09-15T09:10:52.035Z,100.00
2022-09-15T09:13:43.222Z,100.00
2022-09-15T09:16:25.898Z,100.00
2022-09-15T09:19:20.577Z,100.00
2022-09-15T09:21:51.844Z,100.00
2022-09-15T09:24:40.375Z,100.00
2022-09-15T09:27:12.613Z,100.00
2022-09-15T09:29:49.923Z,100.00
2022-09-15T09:32:21.754Z,100.00
2022-09-15T09:35:03.092Z,100.00
2022-09-15T09:37:29.372Z,100.00
2022-09-15T09:39:55.478Z,100.00
2022-09-15T09:42:30.793Z,100.00
2022-09-15T09:44:56.847Z,100.00
2022-09-15T09:47:31.703Z,100.00
2022-09-15T09:49:59.081Z,100.00
2022-09-15T09:52:33.455Z,100.00
2022-09-15T09:55:01.540Z,100.00
2022-09-15T09:57:30.225Z,100.00
2022-09-15T09:59:56.508Z,100.00
2022-09-15T10:02:26.661Z,100.00
2022-09-15T10:05:01.842Z,100.00
2022-09-15T10:07:28.028Z,100.00
2022-09-15T10:09:59.477Z,100.00
2022-09-15T10:12:32.372Z,100.00
2022-09-15T10:15:03.822Z,100.00
2022-09-15T10:17:35.889Z,100.00
2022-09-15T10:20:03.496Z,100.00
2022-09-15T10:22:38.765Z,100.00
2022-09-15T10:25:20.025Z,100.00
2022-09-15T10:28:07.975Z,100.00
2022-09-15T10:30:35.128Z,100.00
2022-09-15T10:33:23.907Z,100.00
2022-09-15T10:35:50.115Z,100.00
2022-09-15T10:38:19.410Z,100.00
2022-09-15T10:40:57.282Z,100.00
2022-09-15T10:43:45.057Z,100.00
2022-09-15T10:46:25.222Z,100.00
2022-09-15T10:49:27.824Z,100.00
2022-09-15T10:52:04.107Z,100.00
2022-09-15T10:54:55.159Z,100.00
2022-09-15T10:57:44.210Z,100.00
2022-09-15T11:00:12.201Z,100.00
2022-09-15T11:02:54.613Z,100.00
2022-09-15T11:05:35.641Z,100.00
2022-09-15T11:08:16.724Z,100.00
2022-09-15T11:11:11.974Z,100.00
2022-09-15T11:14:16.650Z,100.00
2022-09-15T11:16:54.071Z,100.00
2022-09-15T11:19:29.574Z,100.00
2022-09-15T11:22:10.774Z,100.00
2022-09-15T11:24:50.065Z,100.00
2022-09-15T11:27:28.792Z,100.00
2022-09-15T11:30:07.297Z,100.00
2022-09-15T11:32:44.195Z,100.00
2022-09-15T11:35:25.774Z,100.00
2022-09-15T11:37:56.005Z,100.00
2022-09-15T11:40:28.868Z,100.00
2022-09-15T11:43:00.039Z,100.00
2022-09-15T11:45:28.640Z,100.00
2022-09-15T11:48:10.764Z,100.00
2022-09-15T11:50:39.651Z,100.00
2022-09-15T11:53:16.043Z,100.00
2022-09-15T11:55:52.788Z,100.00
2022-09-15T11:58:57.322Z,100.00
2022-09-15T12:01:27.037Z,100.00
2022-09-15T12:04:01.517Z,100.00
2022-09-15T12:06:33.530Z,100.00
2022-09-15T12:09:06.896Z,100.00
2022-09-15T12:11:36.220Z,100.00
2022-09-15T12:14:03.441Z,100.00
2022-09-15T12:16:29.842Z,100.00
2022-09-15T12:19:01.560Z,100.00
2022-09-15T12:21:38.647Z,100.00
2022-09-15T12:24:10.335Z,100.00
2022-09-15T12:26:37.277Z,100.00
2022-09-15T12:29:21.676Z,100.00
2022-09-15T12:31:47.743Z,100.00
2022-09-15T12:34:33.524Z,100.00
2022-09-15T12:37:14.731Z,100.00
2022-09-15T12:39:42.415Z,100.00
2022-09-15T12:42:44.330Z,100.00
2022-09-15T12:45:22.818Z,100.00
2022-09-15T12:48:18.035Z,100.00
2022-09-15T12:50:52.769Z,100.00
2022-09-15T12:53:46.215Z,100.00
2022-09-15T12:56:23.775Z,100.00
2022-09-15T12:58:50.550Z,100.00
2022-09-15T13:01:22.834Z,100.00
2022-09-15T13:03:48.896Z,100.00
2022-09-15T13:06:24.601Z,100.00
2022-09-15T13:09:05.752Z,100.00
2022-09-15T13:11:37.696Z,100.00
2022-09-15T13:14:05.915Z,100.00
2022-09-15T13:16:40.374Z,100.00
2022-09-15T13:19:12.710Z,100.00
2022-09-15T13:21:41.565Z,100.00
2022-09-15T13:24:16.410Z,100.00
2022-09-15T13:26:44.045Z,100.00
2022-09-15T13:29:14.608Z,100.00
2022-09-15T13:31:52.682Z,100.00
2022-09-15T13:40:37.480Z,100.00
2022-09-15T13:43:49.751Z,100.00
2022-09-15T13:46:28.155Z,100.00
2022-09-15T13:49:00.748Z,100.00
2022-09-15T13:51:28.436Z,100.00
2022-09-15T13:53:58.904Z,97.13
2022-09-15T13:56:29.270Z,98.55
2022-09-15T13:59:05.119Z,98.50
2022-09-15T14:01:38.218Z,94.65
2022-09-15T14:04:06.870Z,97.67
2022-09-15T14:06:36.566Z,94.60
2022-09-15T14:09:09.085Z,92.40
2022-09-15T14:11:36.372Z,93.66
2022-09-15T14:14:45.162Z,95.92
2022-09-15T14:17:27.949Z,100.00
2022-09-15T14:19:59.017Z,95.87
2022-09-15T14:22:32.869Z,97.70
2022-09-15T14:25:04.296Z,95.75
2022-09-15T14:27:34.030Z,96.37
2022-09-15T14:30:07.844Z,100.00
2022-09-15T14:32:39.158Z,100.00
2022-09-15T14:35:07.484Z,100.00
2022-09-15T14:37:34.049Z,100.00
2022-09-15T14:40:02.246Z,100.00
2022-09-15T14:42:31.705Z,100.00
2022-09-15T14:45:57.895Z,100.00
2022-09-15T14:48:27.415Z,100.00
2022-09-15T14:50:59.889Z,100.00
2022-09-15T14:53:27.472Z,100.00
2022-09-15T14:56:19.310Z,100.00
2022-09-15T14:58:54.082Z,100.00
2022-09-15T15:01:58.830Z,100.00
2022-09-15T15:04:27.623Z,100.00
2022-09-15T15:07:04.142Z,100.00
2022-09-15T15:09:46.385Z,100.00
2022-09-15T15:12:23.311Z,100.00
2022-09-15T15:14:51.661Z,100.00
2022-09-15T15:17:26.062Z,100.00
2022-09-15T15:20:13.364Z,100.00
2022-09-15T15:22:41.505Z,100.00
2022-09-15T15:25:26.789Z,100.00
2022-09-15T15:27:54.483Z,100.00
2022-09-15T15:30:28.769Z,100.00
2022-09-15T15:33:19.466Z,100.00
2022-09-15T15:35:46.540Z,100.00
2022-09-15T15:38:17.496Z,100.00
2022-09-15T15:40:44.422Z,100.00
2022-09-15T15:43:20.368Z,100.00
2022-09-15T15:46:01.233Z,100.00
2022-09-15T15:48:33.983Z,100.00
2022-09-15T15:51:03.844Z,99.26
2022-09-15T15:53:29.892Z,100.00
2022-09-15T15:55:57.133Z,100.00
2022-09-15T15:58:23.214Z,100.00
2022-09-15T16:00:51.697Z,99.73
2022-09-15T16:03:18.831Z,100.00
2022-09-15T16:05:46.662Z,100.00
2022-09-15T16:08:33.270Z,100.00
2022-09-15T16:11:00.848Z,100.00
2022-09-15T16:13:27.767Z,100.00
2022-09-15T16:15:55.975Z,100.00
2022-09-15T16:18:22.001Z,100.00
2022-09-15T16:20:48.011Z,100.00
2022-09-15T16:23:16.095Z,100.00
2022-09-15T16:25:47.383Z,100.00
2022-09-15T16:28:13.818Z,100.00
2022-09-15T16:30:40.168Z,100.00
2022-09-15T16:33:06.210Z,100.00
2022-09-15T16:35:45.289Z,100.00
2022-09-15T16:38:11.444Z,100.00
2022-09-15T16:40:37.608Z,100.00
2022-09-15T16:43:09.376Z,100.00
2022-09-15T16:45:39.952Z,100.00
2022-09-15T16:48:08.110Z,100.00
2022-09-15T16:50:34.605Z,100.00
2022-09-15T16:53:00.681Z,100.00
2022-09-15T16:55:31.491Z,100.00
2022-09-15T16:57:59.147Z,100.00
2022-09-15T17:00:26.926Z,100.00
2022-09-15T17:02:52.962Z,100.00
2022-09-15T17:05:32.211Z,100.00
2022-09-15T17:07:58.226Z,100.00
2022-09-15T17:10:24.312Z,100.00
2022-09-15T17:12:50.477Z,100.00
2022-09-15T17:15:37.104Z,100.00
2022-09-15T17:18:04.816Z,100.00
2022-09-15T17:20:33.758Z,100.00
2022-09-15T17:23:02.035Z,100.00
2022-09-15T17:25:35.183Z,100.00
2022-09-15T17:28:01.737Z,100.00
2022-09-15T17:30:30.104Z,100.00
2022-09-15T17:33:12.143Z,100.00
2022-09-15T17:35:38.367Z,100.00
2022-09-15T17:38:05.248Z,100.00
2022-09-15T17:40:32.286Z,100.00
2022-09-15T17:42:59.880Z,100.00
2022-09-15T17:45:35.891Z,100.00
2022-09-15T17:48:03.309Z,100.00
2022-09-15T17:50:31.460Z,100.00
2022-09-15T17:52:58.024Z,100.00
2022-09-15T17:55:29.709Z,100.00
2022-09-15T17:57:57.222Z,100.00
2022-09-15T18:00:24.532Z,100.00
2022-09-15T18:02:52.851Z,100.00
2022-09-15T18:05:33.344Z,100.00
2022-09-15T18:08:02.378Z,100.00
2022-09-15T18:10:29.776Z,100.00
2022-09-15T18:12:56.570Z,100.00
2022-09-15T18:15:25.412Z,100.00
2022-09-15T18:17:53.359Z,100.00
2022-09-15T18:20:22.559Z,100.00
2022-09-15T18:22:49.163Z,100.00
2022-09-15T18:25:26.490Z,100.00
2022-09-15T18:27:52.748Z,100.00
2022-09-15T18:30:20.447Z,100.00
2022-09-15T18:32:47.185Z,100.00
2022-09-15T18:35:18.646Z,100.00
2022-09-15T18:37:47.280Z,100.00
2022-09-15T18:40:16.163Z,100.00
2022-09-15T18:42:42.260Z,100.00
2022-09-15T18:45:10.920Z,100.00
2022-09-15T18:47:37.209Z,100.00
2022-09-15T18:50:05.826Z,100.00
2022-09-15T18:52:35.897Z,100.00
2022-09-15T18:55:02.793Z,100.00
2022-09-15T18:57:28.841Z,100.00
2022-09-15T18:59:54.863Z,100.00
2022-09-15T19:02:20.928Z,100.00
2022-09-15T19:04:46.975Z,100.00
2022-09-15T19:07:13.047Z,100.00
2022-09-15T19:09:39.204Z,100.00
2022-09-15T19:12:05.351Z,100.00
2022-09-15T19:14:31.390Z,100.00
2022-09-15T19:16:58.573Z,100.00
2022-09-15T19:19:25.127Z,100.00
2022-09-15T19:21:51.230Z,100.00
2022-09-15T19:24:17.653Z,100.00
2022-09-15T19:26:45.980Z,100.00
2022-09-15T19:29:12.711Z,100.00
2022-09-15T19:31:42.016Z,100.00
2022-09-15T19:34:08.485Z,100.00
2022-09-15T19:36:34.730Z,100.00
2022-09-15T19:39:02.537Z,100.00
2022-09-15T19:41:29.391Z,100.00
2022-09-15T19:43:55.617Z,100.00
2022-09-15T19:46:24.035Z,100.00
2022-09-15T19:48:51.355Z,100.00
2022-09-15T19:51:18.633Z,100.00
2022-09-15T19:53:46.650Z,100.00
2022-09-15T19:56:14.913Z,100.00
2022-09-15T19:58:41.034Z,100.00
2022-09-15T20:01:08.626Z,100.00
2022-09-15T20:03:34.670Z,100.00
2022-09-15T20:06:04.351Z,100.00
2022-09-15T20:08:30.539Z,100.00
2022-09-15T20:10:56.560Z,100.00
2022-09-15T20:13:22.631Z,100.00
2022-09-15T20:15:59.339Z,100.00
2022-09-15T20:18:25.936Z,100.00
2022-09-15T20:20:52.759Z,100.00
2022-09-15T20:23:19.581Z,100.00
2022-09-15T20:25:59.043Z,100.00
2022-09-15T20:28:25.808Z,100.00
2022-09-15T20:31:22.268Z,100.00
2022-09-15T20:33:49.246Z,100.00
2022-09-15T20:36:20.913Z,100.00
2022-09-15T20:38:47.098Z,100.00
2022-09-15T20:41:14.536Z,100.00
2022-09-15T20:43:41.751Z,100.00
2022-09-15T20:46:12.674Z,100.00
2022-09-15T20:48:39.005Z,100.00
2022-09-15T20:51:11.112Z,100.00
2022-09-15T20:53:38.942Z,100.00
2022-09-15T20:56:05.136Z,100.00
2022-09-15T20:58:35.559Z,100.00
2022-09-15T21:01:12.253Z,100.00
2022-09-15T21:03:40.092Z,100.00
2022-09-15T21:06:08.553Z,100.00
2022-09-15T21:08:35.258Z,100.00
2022-09-15T21:11:02.493Z,100.00
2022-09-15T21:13:30.167Z,100.00
2022-09-15T21:16:01.496Z,100.00
2022-09-15T21:18:33.124Z,100.00
2022-09-15T21:21:01.925Z,100.00
2022-09-15T21:23:41.962Z,100.00
2022-09-15T21:26:13.729Z,100.00
2022-09-15T21:28:40.556Z,100.00
2022-09-15T21:31:11.391Z,100.00
2022-09-15T21:33:38.129Z,100.00
2022-09-15T21:36:17.878Z,100.00
2022-09-15T21:38:44.326Z,100.00
2022-09-15T21:41:13.031Z,100.00
2022-09-15T21:43:40.323Z,100.00
2022-09-15T21:46:09.037Z,100.00
2022-09-15T21:48:35.170Z,100.00
2022-09-15T21:51:02.311Z,100.00
2022-09-15T21:53:28.652Z,100.00
2022-09-15T21:55:55.855Z,100.00
2022-09-15T21:58:25.898Z,100.00
2022-09-15T22:00:52.547Z,100.00
2022-09-15T22:03:18.606Z,100.00
2022-09-15T22:05:46.144Z,100.00
2022-09-15T22:08:15.920Z,100.00
2022-09-15T22:10:42.978Z,100.00
2022-09-15T22:13:10.382Z,100.00
2022-09-15T22:15:36.921Z,100.00
2022-09-15T22:18:03.522Z,100.00
2022-09-15T22:20:29.590Z,100.00
2022-09-15T22:22:56.148Z,100.00
2022-09-15T22:25:22.211Z,100.00
2022-09-15T22:27:48.317Z,100.00
2022-09-15T22:30:14.363Z,100.00
2022-09-15T22:32:40.386Z,100.00
2022-09-15T22:35:06.941Z,100.00
2022-09-15T22:37:33.392Z,100.00
2022-09-15T22:39:59.674Z,100.00
2022-09-15T22:42:26.265Z,100.00
2022-09-15T22:44:52.342Z,100.00
2022-09-15T22:47:18.412Z,100.00
2022-09-15T22:49:44.417Z,100.00
2022-09-15T22:52:10.636Z,100.00
2022-09-15T22:54:36.689Z,100.00
2022-09-15T22:57:02.834Z,100.00
2022-09-15T22:59:28.851Z,100.00
2022-09-15T23:01:54.919Z,100.00
2022-09-15T23:04:20.995Z,100.00
2022-09-15T23:06:48.358Z,100.00
2022-09-15T23:09:14.718Z,100.00
2022-09-15T23:11:41.171Z,100.00
2022-09-15T23:14:12.995Z,100.00
2022-09-15T23:16:39.384Z,100.00
2022-09-15T23:19:06.142Z,100.00
2022-09-15T23:21:32.552Z,100.00
2022-09-15T23:23:58.741Z,100.00
2022-09-15T23:26:26.051Z,100.00
2022-09-15T23:28:52.737Z,100.00
2022-09-15T23:31:19.131Z,100.00
2022-09-15T23:33:45.548Z,100.00
2022-09-15T23:36:14.169Z,100.00
2022-09-15T23:38:42.402Z,100.00
2022-09-15T23:41:09.886Z,100.00
2022-09-15T23:43:36.110Z,100.00
2022-09-15T23:46:03.090Z,100.00
2022-09-15T23:48:30.926Z,100.00
2022-09-15T23:50:57.594Z,100.00
2022-09-15T23:53:23.637Z,100.00
2022-09-15T23:55:49.840Z,100.00
2022-09-15T23:58:16.487Z,100.00
